Time,TemperatureF,DewpointF,PressureIn,WindDirection,WindDirectionDegrees,WindSpeedMPH,WindSpeedGustMPH,Humidity,HourlyPrecipIn,Conditions,Clouds,dailyrainin,SoftwareType,DateUTC
2013-01-29 00:05:00,22.6,20.2,29.61,WNW,292,6.3,-999.0,90,-99.99,,,0.00,Acu-Link.com,2013-01-29 07:05:00,
2013-01-29 00:20:00,24.1,21.3,29.61,WSW,247,6.7,-999.0,89,-99.99,,,0.00,Acu-Link.com,2013-01-29 07:20:00,
2013-01-29 00:36:00,23.7,21.5,29.61,SW,225,6.7,-999.0,91,-99.99,,,0.00,Acu-Link.com,2013-01-29 07:36:00,
2013-01-29 00:51:00,23.9,21.9,29.61,WSW,247,6.3,-999.0,92,-99.99,,,0.00,Acu-Link.com,2013-01-29 07:51:00,
2013-01-29 01:06:00,24.4,22.2,29.60,WNW,292,5.8,-999.0,91,-99.99,,,0.00,Acu-Link.com,2013-01-29 08:06:00,
2013-01-29 01:21:00,24.4,22.2,29.60,West,270,6.7,-999.0,91,-99.99,,,0.00,Acu-Link.com,2013-01-29 08:21:00,
2013-01-29 01:36:00,23.2,21.0,29.59,West,270,6.7,-999.0,91,-99.99,,,0.00,Acu-Link.com,2013-01-29 08:36:00,
2013-01-29 01:51:00,22.6,20.7,29.60,West,270,7.4,-999.0,92,-99.99,,,0.00,Acu-Link.com,2013-01-29 08:51:00,
2013-01-29 02:15:00,22.8,20.9,29.60,West,270,7.4,-999.0,92,-99.99,,,0.00,Acu-Link.com,2013-01-29 09:15:00,
2013-01-29 02:30:00,21.9,20.2,29.59,West,270,7.4,-999.0,93,-99.99,,,0.00,Acu-Link.com,2013-01-29 09:30:00,
2013-01-29 02:46:00,21.6,19.9,29.59,West,270,6.7,-999.0,93,-99.99,,,0.00,Acu-Link.com,2013-01-29 09:46:00,
2013-01-29 03:01:00,22.5,20.7,29.59,West,270,8.9,-999.0,93,-99.99,,,0.00,Acu-Link.com,2013-01-29 10:01:00,
2013-01-29 03:16:00,21.9,20.5,29.59,West,270,6.7,-999.0,94,-99.99,,,0.00,Acu-Link.com,2013-01-29 10:16:00,
2013-01-29 03:31:00,21.9,20.5,29.59,West,270,6.7,-999.0,94,-99.99,,,0.00,Acu-Link.com,2013-01-29 10:31:00,
2013-01-29 03:46:00,22.1,20.6,29.58,West,270,6.3,-999.0,94,-99.99,,,0.00,Acu-Link.com,2013-01-29 10:46:00,
2013-01-29 04:01:00,21.7,20.3,29.58,West,270,6.3,-999.0,94,-99.99,,,0.00,Acu-Link.com,2013-01-29 11:01:00,
2013-01-29 04:16:00,21.0,19.3,29.59,West,270,6.7,-999.0,93,-99.99,,,0.00,Acu-Link.com,2013-01-29 11:16:00,
2013-01-29 04:31:00,23.2,20.7,29.58,WNW,292,7.8,-999.0,90,-99.99,,,0.00,Acu-Link.com,2013-01-29 11:31:00,
2013-01-29 04:46:00,23.7,21.0,29.58,WNW,292,8.9,-999.0,89,-99.99,,,0.00,Acu-Link.com,2013-01-29 11:46:00,
2013-01-29 05:01:00,23.9,21.1,29.58,West,270,7.8,-999.0,89,-99.99,,,0.00,Acu-Link.com,2013-01-29 12:01:00,
2013-01-29 05:16:00,23.2,20.4,29.58,WNW,292,9.4,-999.0,89,-99.99,,,0.00,Acu-Link.com,2013-01-29 12:16:00,
2013-01-29 05:31:00,22.8,19.8,29.58,West,270,6.7,-999.0,88,-99.99,,,0.00,Acu-Link.com,2013-01-29 12:31:00,
2013-01-29 05:46:00,22.8,19.5,29.58,West,270,7.4,-999.0,87,-99.99,,,0.00,Acu-Link.com,2013-01-29 12:46:00,
2013-01-29 06:02:00,23.2,19.6,29.59,West,270,6.7,-999.0,86,-99.99,,,0.00,Acu-Link.com,2013-01-29 13:02:00,
2013-01-29 06:17:00,21.6,18.0,29.59,West,270,8.3,-999.0,86,-99.99,,,0.00,Acu-Link.com,2013-01-29 13:17:00,
2013-01-29 06:32:00,21.0,17.5,29.59,WNW,292,7.4,-999.0,86,-99.99,,,0.00,Acu-Link.com,2013-01-29 13:32:00,
2013-01-29 06:47:00,18.5,15.8,29.59,West,270,7.8,-999.0,89,-99.99,,,0.00,Acu-Link.com,2013-01-29 13:47:00,
2013-01-29 07:02:00,19.2,16.8,29.60,West,270,8.3,-999.0,90,-99.99,,,0.00,Acu-Link.com,2013-01-29 14:02:00,
2013-01-29 07:18:00,19.2,16.5,29.60,West,270,8.9,-999.0,89,-99.99,,,0.00,Acu-Link.com,2013-01-29 14:18:00,
2013-01-29 07:33:00,18.9,15.9,29.61,WNW,292,8.3,-999.0,88,-99.99,,,0.00,Acu-Link.com,2013-01-29 14:33:00,
2013-01-29 07:48:00,19.4,15.9,29.61,West,270,7.4,-999.0,86,-99.99,,,0.00,Acu-Link.com,2013-01-29 14:48:00,
2013-01-29 08:03:00,20.7,16.9,29.62,West,270,7.8,-999.0,85,-99.99,,,0.00,Acu-Link.com,2013-01-29 15:03:00,
2013-01-29 08:18:00,20.7,16.6,29.63,West,270,5.8,-999.0,84,-99.99,,,0.00,Acu-Link.com,2013-01-29 15:18:00,
2013-01-29 08:33:00,21.4,16.8,29.63,West,270,6.3,-999.0,82,-99.99,,,0.00,Acu-Link.com,2013-01-29 15:33:00,
2013-01-29 08:48:00,21.4,16.8,29.63,West,270,5.1,-999.0,82,-99.99,,,0.00,Acu-Link.com,2013-01-29 15:48:00,
2013-01-29 09:03:00,24.1,18.2,29.64,West,270,9.4,-999.0,78,-99.99,,,0.00,Acu-Link.com,2013-01-29 16:03:00,
2013-01-29 09:18:00,25.3,18.9,29.64,WNW,292,11.4,-999.0,76,-99.99,,,0.00,Acu-Link.com,2013-01-29 16:18:00,
2013-01-29 09:33:00,25.2,18.4,29.65,WNW,292,7.4,-999.0,75,-99.99,,,0.00,Acu-Link.com,2013-01-29 16:33:00,
2013-01-29 09:48:00,26.4,19.6,29.66,WNW,292,6.3,-999.0,75,-99.99,,,0.00,Acu-Link.com,2013-01-29 16:48:00,
2013-01-29 10:03:00,27.3,19.8,29.66,WNW,292,12.5,-999.0,73,-99.99,,,0.00,Acu-Link.com,2013-01-29 17:03:00,
2013-01-29 10:18:00,27.5,20.6,29.66,WNW,292,12.5,-999.0,75,-99.99,,,0.00,Acu-Link.com,2013-01-29 17:18:00,
2013-01-29 10:33:00,28.0,20.8,29.68,NW,315,11.4,-999.0,74,-99.99,,,0.00,Acu-Link.com,2013-01-29 17:33:00,
2013-01-29 10:48:00,25.2,20.2,29.68,NW,315,8.9,-999.0,81,-99.99,,,0.00,Acu-Link.com,2013-01-29 17:48:00,
2013-01-29 11:04:00,22.8,19.0,29.70,NW,315,6.7,-999.0,85,-99.99,,,0.00,Acu-Link.com,2013-01-29 18:04:00,
2013-01-29 11:19:00,19.6,16.4,29.69,North,0,4.7,-999.0,87,-99.99,,,0.00,Acu-Link.com,2013-01-29 18:19:00,
2013-01-29 11:34:00,16.9,15.2,29.70,East,90,8.3,-999.0,93,-99.99,,,0.00,Acu-Link.com,2013-01-29 18:34:00,
2013-01-29 11:49:00,16.9,15.5,29.70,NE,45,8.9,-999.0,94,-99.99,,,0.00,Acu-Link.com,2013-01-29 18:49:00,
2013-01-29 12:04:00,15.3,14.3,29.71,NE,45,11.9,-999.0,96,-99.99,,,0.00,Acu-Link.com,2013-01-29 19:04:00,
2013-01-29 12:19:00,15.4,14.7,29.72,ESE,112,6.3,-999.0,97,-99.99,,,0.00,Acu-Link.com,2013-01-29 19:19:00,
2013-01-29 12:34:00,15.1,14.1,29.72,ENE,67,6.7,-999.0,96,-99.99,,,0.00,Acu-Link.com,2013-01-29 19:34:00,
2013-01-29 12:49:00,14.5,13.6,29.73,NNW,337,11.4,-999.0,96,-99.99,,,0.00,Acu-Link.com,2013-01-29 19:49:00,
2013-01-29 13:04:00,16.3,13.7,29.73,NNW,337,11.9,-999.0,89,-99.99,,,0.00,Acu-Link.com,2013-01-29 20:04:00,
2013-01-29 13:19:00,15.4,13.0,29.74,NNE,22,7.8,-999.0,90,-99.99,,,0.00,Acu-Link.com,2013-01-29 20:19:00,
2013-01-29 13:34:00,15.4,12.8,29.75,North,0,11.9,-999.0,89,-99.99,,,0.00,Acu-Link.com,2013-01-29 20:34:00,
2013-01-29 13:49:00,15.8,13.1,29.76,NW,315,6.3,-999.0,89,-99.99,,,0.00,Acu-Link.com,2013-01-29 20:49:00,
2013-01-29 14:04:00,15.8,12.9,29.77,NNE,22,7.8,-999.0,88,-99.99,,,0.00,Acu-Link.com,2013-01-29 21:04:00,
2013-01-29 14:19:00,17.1,14.1,29.77,NNW,337,4.7,-999.0,88,-99.99,,,0.00,Acu-Link.com,2013-01-29 21:19:00,
2013-01-29 14:34:00,16.7,15.0,29.78,NNE,22,6.3,-999.0,93,-99.99,,,0.00,Acu-Link.com,2013-01-29 21:34:00,
2013-01-29 14:49:00,16.7,14.5,29.79,NNE,22,8.9,-999.0,91,-99.99,,,0.00,Acu-Link.com,2013-01-29 21:49:00,
2013-01-29 15:04:00,16.5,14.9,29.80,NNE,22,15.4,-999.0,93,-99.99,,,0.00,Acu-Link.com,2013-01-29 22:04:00,
2013-01-29 15:19:00,16.5,14.9,29.81,NNW,337,9.8,-999.0,93,-99.99,,,0.00,Acu-Link.com,2013-01-29 22:19:00,
2013-01-29 15:34:00,16.5,14.9,29.82,NNW,337,14.5,-999.0,93,-99.99,,,0.00,Acu-Link.com,2013-01-29 22:34:00,
2013-01-29 15:50:00,16.3,13.9,29.82,NW,315,14.1,-999.0,90,-99.99,,,0.00,Acu-Link.com,2013-01-29 22:50:00,
2013-01-29 16:05:00,16.2,13.8,29.83,NW,315,8.9,-999.0,90,-99.99,,,0.00,Acu-Link.com,2013-01-29 23:05:00,
2013-01-29 16:20:00,15.8,13.4,29.84,WNW,292,12.5,-999.0,90,-99.99,,,0.00,Acu-Link.com,2013-01-29 23:20:00,
2013-01-29 16:35:00,15.6,13.2,29.86,North,0,15.4,-999.0,90,-99.99,,,0.00,Acu-Link.com,2013-01-29 23:35:00,
2013-01-29 16:50:00,15.6,12.7,29.86,NNE,22,11.9,-999.0,88,-99.99,,,0.00,Acu-Link.com,2013-01-29 23:50:00,
2013-01-29 17:05:00,15.6,13.0,29.87,NW,315,8.9,-999.0,89,-99.99,,,0.00,Acu-Link.com,2013-01-30 00:05:00,
2013-01-29 17:20:00,15.6,13.5,29.88,WNW,292,13.4,-999.0,91,-99.99,,,0.00,Acu-Link.com,2013-01-30 00:20:00,
2013-01-29 17:35:00,15.6,13.7,29.89,NNW,337,21.7,-999.0,92,-99.99,,,0.00,Acu-Link.com,2013-01-30 00:35:00,
2013-01-29 17:50:00,15.6,13.7,29.89,WNW,292,11.4,-999.0,92,-99.99,,,0.00,Acu-Link.com,2013-01-30 00:50:00,
2013-01-29 18:06:00,14.9,13.0,29.89,NNW,337,15.0,-999.0,92,-99.99,,,0.00,Acu-Link.com,2013-01-30 01:06:00,
2013-01-29 18:21:00,14.4,12.2,29.91,NNW,337,15.4,-999.0,91,-99.99,,,0.00,Acu-Link.com,2013-01-30 01:21:00,
2013-01-29 18:36:00,14.2,11.8,29.92,NW,315,15.4,-999.0,90,-99.99,,,0.00,Acu-Link.com,2013-01-30 01:36:00,
2013-01-29 18:51:00,13.5,11.3,29.93,NNW,337,14.5,-999.0,91,-99.99,,,0.00,Acu-Link.com,2013-01-30 01:51:00,
2013-01-29 19:06:00,12.4,10.0,29.94,NW,315,16.6,-999.0,90,-99.99,,,0.00,Acu-Link.com,2013-01-30 02:06:00,
2013-01-29 19:21:00,10.8,7.9,29.94,NNW,337,15.4,-999.0,88,-99.99,,,0.00,Acu-Link.com,2013-01-30 02:21:00,
2013-01-29 19:36:00,9.7,6.9,29.94,WNW,292,19.7,-999.0,88,-99.99,,,0.00,Acu-Link.com,2013-01-30 02:36:00,
2013-01-29 19:51:00,8.8,6.0,29.95,ENE,67,16.1,-999.0,88,-99.99,,,0.00,Acu-Link.com,2013-01-30 02:51:00,
2013-01-29 20:06:00,8.4,5.9,29.96,WNW,292,13.0,-999.0,89,-99.99,,,0.00,Acu-Link.com,2013-01-30 03:06:00,
2013-01-29 20:21:00,7.3,4.8,29.97,WNW,292,15.4,-999.0,89,-99.99,,,0.00,Acu-Link.com,2013-01-30 03:21:00,
2013-01-29 20:36:00,6.3,3.7,29.98,NNW,337,12.5,-999.0,89,-99.99,,,0.00,Acu-Link.com,2013-01-30 03:36:00,
2013-01-29 20:51:00,5.4,2.3,29.99,NW,315,12.5,-999.0,87,-99.99,,,0.00,Acu-Link.com,2013-01-30 03:51:00,
2013-01-29 21:06:00,4.1,1.4,29.98,WNW,292,9.8,-999.0,88,-99.99,,,0.00,Acu-Link.com,2013-01-30 04:06:00,
2013-01-29 21:21:00,2.3,-0.7,29.98,NNE,22,15.4,-999.0,87,-99.99,,,0.00,Acu-Link.com,2013-01-30 04:21:00,
2013-01-29 21:36:00,2.1,-0.8,29.98,WNW,292,14.1,-999.0,87,-99.99,,,0.00,Acu-Link.com,2013-01-30 04:36:00,
2013-01-29 21:51:00,0.5,-2.4,29.99,WNW,292,19.7,-999.0,87,-99.99,,,0.00,Acu-Link.com,2013-01-30 04:51:00,
2013-01-29 22:06:00,-0.2,-3.4,29.98,WNW,292,11.4,-999.0,86,-99.99,,,0.00,Acu-Link.com,2013-01-30 05:06:00,
2013-01-29 22:22:00,-1.1,-4.3,29.97,WNW,292,14.1,-999.0,86,-99.99,,,0.00,Acu-Link.com,2013-01-30 05:22:00,
2013-01-29 22:37:00,-1.7,-4.8,29.97,WNW,292,16.6,-999.0,86,-99.99,,,0.00,Acu-Link.com,2013-01-30 05:37:00,
2013-01-29 22:52:00,-2.0,-4.9,29.97,WNW,292,19.0,-999.0,87,-99.99,,,0.00,Acu-Link.com,2013-01-30 05:52:00,
2013-01-29 23:07:00,-2.7,-5.9,29.97,NW,315,19.7,-999.0,86,-99.99,,,0.00,Acu-Link.com,2013-01-30 06:07:00,
2013-01-29 23:22:00,-2.9,-6.0,29.96,WSW,247,14.1,-999.0,86,-99.99,,,0.00,Acu-Link.com,2013-01-30 06:22:00,
2013-01-29 23:37:00,-3.6,-6.8,29.96,WNW,292,24.8,-999.0,86,-99.99,,,0.00,Acu-Link.com,2013-01-30 06:37:00,
2013-01-29 23:52:00,-3.6,-6.5,29.95,WNW,292,20.1,-999.0,87,-99.99,,,0.00,Acu-Link.com,2013-01-30 06:52:00,